Time;durP1;ratioP1;P1;durP2;ratioP2;P2;SDS_P1;SDS_P2;PMS_P1;PMS_P2;Temp;Humidity;BMP_temperature;BMP_pressure;BME280_temperature;BME280_humidity;BME280_pressure;Samples;Min_cycle;Max_cycle;Signal;HPM_P1;HPM_P2
2023/02/08 00:02:20;;;;;;;26.98;16.92;;;0.70;99.90;;;;;;4910978;29;20176;-91
2023/02/08 00:04:45;;;;;;;25.55;16.38;;;0.70;99.90;;;;;;4915604;29;20377;-91
2023/02/08 00:07:11;;;;;;;26.05;16.60;;;0.60;99.90;;;;;;4915500;29;20044;-90
2023/02/08 00:09:37;;;;;;;25.80;15.70;;;0.60;99.90;;;;;;4926770;29;20052;-91
2023/02/08 00:12:03;;;;;;;23.50;15.70;;;0.60;99.90;;;;;;4907904;29;20138;-90
2023/02/08 00:14:28;;;;;;;25.83;16.27;;;0.60;99.90;;;;;;4913920;29;20068;-90
2023/02/08 00:16:54;;;;;;;26.15;16.20;;;0.60;99.90;;;;;;4919165;29;20044;-90
2023/02/08 00:19:19;;;;;;;26.02;16.63;;;0.60;99.90;;;;;;4919490;29;20037;-91
2023/02/08 00:21:45;;;;;;;21.42;14.93;;;0.60;99.90;;;;;;4904261;29;20408;-90
2023/02/08 00:24:11;;;;;;;25.17;15.57;;;0.60;99.90;;;;;;4902664;29;20040;-90
2023/02/08 00:26:36;;;;;;;22.40;14.98;;;0.50;99.90;;;;;;4936854;29;20114;-90
2023/02/08 00:29:02;;;;;;;23.23;15.80;;;0.50;99.90;;;;;;4918071;29;20036;-90
2023/02/08 00:31:28;;;;;;;22.20;15.07;;;0.50;99.90;;;;;;4936946;29;20054;-91
2023/02/08 00:33:54;;;;;;;24.85;15.70;;;0.50;99.90;;;;;;4920111;29;20043;-90
2023/02/08 00:36:19;;;;;;;22.08;15.52;;;0.50;99.90;;;;;;4902457;29;20106;-90
2023/02/08 00:38:45;;;;;;;25.90;16.27;;;0.50;99.90;;;;;;4916608;29;20075;-90
2023/02/08 00:41:11;;;;;;;22.30;14.82;;;0.40;99.90;;;;;;4903781;29;20048;-90
2023/02/08 00:43:36;;;;;;;22.70;15.80;;;0.40;99.90;;;;;;4900842;29;20048;-91
2023/02/08 00:46:03;;;;;;;22.45;14.60;;;0.40;99.90;;;;;;4914677;29;20048;-90
2023/02/08 00:48:28;;;;;;;22.45;14.57;;;0.40;99.90;;;;;;4925861;29;20085;-91
2023/02/08 00:51:03;;;;;;;21.70;14.48;;;0.40;99.90;;;;;;4912383;29;20075;-91
2023/02/08 00:53:29;;;;;;;20.77;14.40;;;0.40;99.90;;;;;;4916697;29;20040;-90
2023/02/08 00:55:56;;;;;;;21.70;14.70;;;0.30;99.90;;;;;;4906230;29;20052;-89
2023/02/08 00:58:22;;;;;;;21.90;14.55;;;0.40;99.90;;;;;;4936153;29;20127;-89
2023/02/08 01:00:51;;;;;;;22.05;14.65;;;0.30;99.90;;;;;;4918329;29;20047;-90
2023/02/08 01:03:17;;;;;;;20.05;13.95;;;0.30;99.90;;;;;;4915788;29;20562;-89
2023/02/08 01:05:42;;;;;;;19.20;13.75;;;0.30;99.90;;;;;;4911585;29;20040;-89
2023/02/08 01:08:08;;;;;;;22.60;15.10;;;0.30;99.90;;;;;;4913478;29;20044;-89
2023/02/08 01:10:34;;;;;;;23.02;14.93;;;0.30;99.90;;;;;;4922228;29;20059;-89
2023/02/08 01:13:00;;;;;;;21.70;14.82;;;0.30;99.90;;;;;;4909194;29;20050;-89
2023/02/08 01:15:26;;;;;;;20.40;14.50;;;0.20;99.90;;;;;;4911008;29;20044;-88
2023/02/08 01:17:56;;;;;;;18.67;13.77;;;0.30;99.90;;;;;;4915038;29;20040;-89
2023/02/08 01:20:22;;;;;;;21.05;13.27;;;0.20;99.90;;;;;;4903421;29;20099;-89
2023/02/08 01:22:48;;;;;;;20.40;13.38;;;0.20;99.90;;;;;;4917343;29;20048;-89
2023/02/08 01:25:14;;;;;;;20.42;13.75;;;0.20;99.90;;;;;;4901180;29;20135;-88
2023/02/08 01:27:39;;;;;;;20.13;13.90;;;0.20;99.90;;;;;;4911588;29;20048;-88
2023/02/08 01:30:06;;;;;;;20.60;14.60;;;0.20;99.90;;;;;;4917939;29;20106;-88
2023/02/08 01:32:31;;;;;;;20.10;13.70;;;0.20;99.90;;;;;;4917302;29;20289;-88
2023/02/08 01:34:57;;;;;;;20.40;13.85;;;0.10;99.90;;;;;;4926828;29;20382;-88
2023/02/08 01:37:23;;;;;;;20.65;13.95;;;0.10;99.90;;;;;;4902633;29;20056;-88
2023/02/08 01:39:48;;;;;;;20.85;14.25;;;0.10;99.90;;;;;;4917837;29;20396;-89
2023/02/08 01:42:15;;;;;;;18.45;13.45;;;0.10;99.90;;;;;;4902260;29;20043;-88
2023/02/08 01:45:03;;;;;;;21.83;14.38;;;0.10;99.90;;;;;;4917229;29;20128;-88
2023/02/08 01:47:29;;;;;;;21.05;13.15;;;0.10;99.90;;;;;;4904290;29;20099;-88
2023/02/08 01:49:54;;;;;;;18.63;13.23;;;0.00;99.90;;;;;;4912776;29;20055;-88
2023/02/08 01:52:24;;;;;;;19.00;13.50;;;0.00;99.90;;;;;;4917074;29;20051;-88
2023/02/08 01:55:05;;;;;;;19.05;12.73;;;0.00;99.90;;;;;;4920885;29;20032;-88
2023/02/08 01:57:31;;;;;;;17.92;12.63;;;0.00;99.90;;;;;;4932315;29;20055;-88
2023/02/08 02:00:16;;;;;;;20.50;14.05;;;0.00;99.90;;;;;;4934731;29;20048;-88
2023/02/08 02:02:44;;;;;;;17.60;13.07;;;-0.10;99.90;;;;;;4920582;29;20057;-87
2023/02/08 02:05:11;;;;;;;17.88;12.63;;;-0.10;99.90;;;;;;4918081;29;20114;-88
2023/02/08 02:07:41;;;;;;;17.80;12.68;;;-0.10;99.90;;;;;;4931388;29;20103;-87
2023/02/08 02:10:10;;;;;;;18.23;12.63;;;-0.10;99.90;;;;;;4899036;29;20052;-88
2023/02/08 02:12:37;;;;;;;19.42;13.45;;;-0.10;99.90;;;;;;4900615;29;20056;-89
2023/02/08 02:15:04;;;;;;;19.23;12.90;;;-0.10;99.90;;;;;;4913753;29;20058;-89
2023/02/08 02:17:30;;;;;;;18.92;13.23;;;-0.10;99.90;;;;;;4919168;29;20044;-89
2023/02/08 02:20:06;;;;;;;19.58;13.57;;;-0.20;99.90;;;;;;4915282;29;20040;-89
2023/02/08 02:22:47;;;;;;;19.83;12.75;;;-0.20;99.90;;;;;;4911858;29;20195;-89
2023/02/08 02:25:34;;;;;;;18.98;13.20;;;-0.20;99.90;;;;;;4916938;29;20040;-89
2023/02/08 02:28:19;;;;;;;19.92;13.57;;;-0.20;99.90;;;;;;4911799;29;20059;-89
2023/02/08 02:31:03;;;;;;;20.77;14.15;;;-0.20;99.90;;;;;;4918700;29;20067;-89
2023/02/08 02:33:52;;;;;;;18.02;12.95;;;-0.20;99.90;;;;;;4932715;29;20484;-88
2023/02/08 02:36:25;;;;;;;21.90;15.48;;;-0.20;99.90;;;;;;4903135;29;20067;-89
2023/02/08 02:39:16;;;;;;;19.58;14.60;;;-0.30;99.90;;;;;;4918688;29;20099;-88
2023/02/08 02:45:35;;;;;;;20.17;13.85;;;-0.20;99.90;;;;;;4925478;29;20044;-88
2023/02/08 02:48:12;;;;;;;19.95;13.48;;;-0.30;99.90;;;;;;4917855;29;20505;-89
2023/02/08 02:50:48;;;;;;;18.83;13.57;;;-0.30;99.90;;;;;;4936284;29;20135;-89
2023/02/08 02:53:35;;;;;;;18.92;13.45;;;-0.30;99.90;;;;;;4936236;29;20057;-89
2023/02/08 02:56:25;;;;;;;17.70;12.85;;;-0.30;99.90;;;;;;4907667;29;20098;-88
2023/02/08 02:58:54;;;;;;;17.42;12.82;;;-0.30;99.90;;;;;;4934262;29;20052;-88
2023/02/08 03:01:25;;;;;;;18.25;12.98;;;-0.30;99.90;;;;;;4901456;29;20052;-89
2023/02/08 03:03:52;;;;;;;19.20;13.52;;;-0.30;99.90;;;;;;4902857;29;20079;-88
2023/02/08 03:06:35;;;;;;;20.70;14.43;;;-0.30;99.90;;;;;;4936578;29;20050;-88
2023/02/08 03:12:11;;;;;;;19.33;13.27;;;-0.30;99.90;;;;;;5110181;27;20590;-87
2023/02/08 03:14:45;;;;;;;20.73;13.50;;;-0.40;99.90;;;;;;5051795;28;20086;-87
2023/02/08 03:17:11;;;;;;;19.75;13.23;;;-0.40;99.90;;;;;;5072051;28;20075;-87
2023/02/08 03:19:55;;;;;;;19.90;13.05;;;-0.40;99.90;;;;;;5090739;28;20078;-87
2023/02/08 03:22:33;;;;;;;19.55;13.20;;;-0.40;99.90;;;;;;5069138;28;20049;-87
2023/02/08 03:25:12;;;;;;;18.40;13.23;;;-0.40;99.90;;;;;;5069732;28;20041;-87
2023/02/08 03:28:05;;;;;;;19.13;13.45;;;-0.40;99.90;;;;;;5072487;28;20530;-88
2023/02/08 03:30:37;;;;;;;20.55;13.98;;;-0.50;99.90;;;;;;5081955;28;20044;-87
2023/02/08 03:33:15;;;;;;;19.38;13.68;;;-0.50;99.90;;;;;;5071954;28;20036;-88
2023/02/08 03:35:56;;;;;;;18.05;12.93;;;-0.50;99.90;;;;;;5068417;28;20392;-87
2023/02/08 03:38:49;;;;;;;19.60;13.52;;;-0.50;99.90;;;;;;5085926;28;20121;-87
2023/02/08 03:41:21;;;;;;;20.45;13.45;;;-0.50;99.90;;;;;;5086571;28;20044;-87
2023/02/08 03:44:00;;;;;;;21.02;13.82;;;-0.50;99.90;;;;;;5090208;28;20040;-88
2023/02/08 03:46:45;;;;;;;19.95;14.23;;;-0.50;99.90;;;;;;5067585;28;20380;-88
2023/02/08 03:49:15;;;;;;;19.00;13.73;;;-0.60;99.90;;;;;;5070749;28;20506;-87
2023/02/08 03:51:43;;;;;;;19.35;13.02;;;-0.60;99.90;;;;;;5067562;28;20052;-88
2023/02/08 03:54:19;;;;;;;18.65;13.63;;;-0.60;99.90;;;;;;5063205;28;20033;-87
2023/02/08 03:57:05;;;;;;;19.25;14.00;;;-0.50;99.90;;;;;;5078118;28;20459;-87
2023/02/08 03:59:37;;;;;;;21.40;14.52;;;-0.60;99.90;;;;;;5085302;28;20397;-87
2023/02/08 04:02:06;;;;;;;19.58;13.25;;;-0.60;99.90;;;;;;5051781;28;20048;-87
2023/02/08 04:04:36;;;;;;;18.65;13.73;;;-0.60;99.90;;;;;;5068083;28;20045;-87
2023/02/08 04:07:02;;;;;;;19.38;14.18;;;-0.60;99.90;;;;;;5070727;28;20052;-87
2023/02/08 04:09:28;;;;;;;19.92;14.30;;;-0.60;99.90;;;;;;5088715;28;20048;-86
2023/02/08 04:11:55;;;;;;;20.17;14.10;;;-0.60;99.90;;;;;;5089822;28;20040;-87
2023/02/08 04:14:21;;;;;;;19.85;13.85;;;-0.60;99.90;;;;;;5088364;28;20032;-86
2023/02/08 04:16:47;;;;;;;19.45;13.07;;;-0.60;99.90;;;;;;5089681;28;20483;-87
2023/02/08 04:19:12;;;;;;;18.85;13.88;;;-0.70;99.90;;;;;;5070562;28;20040;-87
2023/02/08 04:21:38;;;;;;;18.65;13.43;;;-0.70;99.90;;;;;;5065233;28;20123;-86
2023/02/08 04:24:04;;;;;;;21.95;14.35;;;-0.70;99.90;;;;;;5075469;28;20456;-87
2023/02/08 04:26:29;;;;;;;19.10;13.38;;;-0.70;99.90;;;;;;5056883;28;20048;-87
2023/02/08 04:28:55;;;;;;;21.83;14.93;;;-0.70;99.90;;;;;;5075619;28;20041;-87
2023/02/08 04:31:20;;;;;;;19.20;14.07;;;-0.70;99.90;;;;;;5075353;28;20135;-87
2023/02/08 04:33:49;;;;;;;20.40;15.00;;;-0.70;99.90;;;;;;5056965;28;20080;-87
2023/02/08 04:36:15;;;;;;;19.75;13.85;;;-0.60;99.90;;;;;;5056819;28;20049;-87
2023/02/08 04:38:40;;;;;;;21.60;14.43;;;-0.80;99.90;;;;;;5075663;28;20533;-87
2023/02/08 04:41:06;;;;;;;19.35;13.45;;;-0.80;99.90;;;;;;5056494;28;20049;-87
2023/02/08 04:43:32;;;;;;;21.33;14.00;;;-0.70;99.90;;;;;;5074550;28;20127;-87
2023/02/08 04:45:58;;;;;;;20.15;13.98;;;-0.80;99.90;;;;;;5074813;28;20128;-87
2023/02/08 04:48:29;;;;;;;19.38;14.48;;;-0.80;99.90;;;;;;5054183;28;20048;-87
2023/02/08 04:50:56;;;;;;;19.00;13.52;;;-0.80;99.90;;;;;;5056686;28;20040;-87
2023/02/08 04:53:23;;;;;;;19.35;14.57;;;-0.80;99.90;;;;;;5053469;28;20048;-87
2023/02/08 04:55:48;;;;;;;19.42;13.60;;;-0.80;99.90;;;;;;5063181;28;20044;-87
2023/02/08 04:58:14;;;;;;;19.50;14.25;;;-0.80;99.90;;;;;;5054851;28;20041;-87
2023/02/08 05:00:40;;;;;;;20.33;13.82;;;-0.80;99.90;;;;;;5056123;28;20051;-87
2023/02/08 05:03:05;;;;;;;18.60;13.98;;;-0.80;99.90;;;;;;5056989;28;20048;-86
2023/02/08 05:05:31;;;;;;;22.25;14.63;;;-0.80;99.90;;;;;;5056244;28;20055;-86
2023/02/08 05:07:57;;;;;;;19.23;13.88;;;-0.80;99.90;;;;;;5053734;28;20076;-87
2023/02/08 05:10:24;;;;;;;19.67;14.35;;;-0.90;99.90;;;;;;5069059;28;20411;-88
2023/02/08 05:12:50;;;;;;;20.25;14.32;;;-0.90;99.90;;;;;;5057531;28;20036;-85
2023/02/08 05:15:16;;;;;;;19.92;14.15;;;-0.90;99.90;;;;;;5056573;28;20510;-86
2023/02/08 05:17:41;;;;;;;21.35;14.60;;;-0.90;99.90;;;;;;5052920;28;20120;-89
2023/02/08 05:20:07;;;;;;;21.80;15.40;;;-0.90;99.90;;;;;;5056602;28;20052;-86
2023/02/08 05:22:33;;;;;;;24.05;16.35;;;-0.90;99.90;;;;;;5057734;28;20056;-94
2023/02/08 05:24:59;;;;;;;22.88;15.40;;;-0.90;99.90;;;;;;5076185;28;20032;-92
2023/02/08 05:27:24;;;;;;;21.55;15.02;;;-0.90;99.90;;;;;;5076194;28;20045;-92
2023/02/08 05:29:50;;;;;;;20.38;14.82;;;-0.90;99.90;;;;;;5058017;28;20059;-91
2023/02/08 05:32:16;;;;;;;24.63;16.27;;;-0.90;99.90;;;;;;5057591;28;20518;-92
2023/02/08 05:34:52;;;;;;;22.20;14.75;;;-0.90;99.90;;;;;;5069942;23;20040;-89
2023/02/08 05:37:27;;;;;;;22.00;15.50;;;-0.90;99.90;;;;;;5041204;28;20501;-90
2023/02/08 05:40:04;;;;;;;23.42;15.85;;;-0.90;99.90;;;;;;5027223;28;20404;-90
2023/02/08 05:42:30;;;;;;;20.20;14.68;;;-0.90;99.90;;;;;;5058033;28;20029;-88
2023/02/08 05:45:05;;;;;;;23.35;16.10;;;-0.90;99.90;;;;;;5056937;28;20098;-88
2023/02/08 05:47:30;;;;;;;21.40;14.77;;;-0.90;99.90;;;;;;5036066;28;20463;-87
2023/02/08 05:49:56;;;;;;;21.80;15.60;;;-0.90;99.90;;;;;;5036388;28;20519;-87
2023/02/08 05:52:22;;;;;;;20.38;14.77;;;-0.90;99.90;;;;;;5053489;28;20116;-87
2023/02/08 05:54:48;;;;;;;21.15;15.10;;;-0.90;99.90;;;;;;5036508;28;20129;-87
2023/02/08 05:57:13;;;;;;;22.13;15.18;;;-1.00;99.90;;;;;;5036043;28;20041;-87
2023/02/08 05:59:45;;;;;;;21.85;15.70;;;-1.00;99.90;;;;;;5035579;28;20056;-87
2023/02/08 06:02:11;;;;;;;21.92;15.70;;;-1.00;99.90;;;;;;5053132;28;20130;-87
2023/02/08 06:07:13;;;;;;;21.42;14.63;;;-1.10;99.90;;;;;;5019183;22;20046;-87
2023/02/08 06:09:42;;;;;;;21.10;14.98;;;-1.10;99.90;;;;;;5012399;28;20053;-86
2023/02/08 06:12:11;;;;;;;21.88;16.17;;;-1.10;99.90;;;;;;5012077;28;20052;-87
2023/02/08 06:14:40;;;;;;;20.92;15.13;;;-1.10;99.90;;;;;;5012830;28;20104;-86
2023/02/08 06:17:05;;;;;;;23.67;15.57;;;-1.10;99.90;;;;;;5012381;28;20536;-86
2023/02/08 06:19:34;;;;;;;21.33;15.35;;;-1.20;99.90;;;;;;5012756;28;20045;-86
2023/02/08 06:22:03;;;;;;;23.90;16.35;;;-1.10;99.90;;;;;;5012568;28;20049;-86
2023/02/08 06:24:32;;;;;;;22.40;15.27;;;-1.20;99.90;;;;;;5012255;28;20041;-85
2023/02/08 06:26:57;;;;;;;21.73;15.50;;;-1.20;99.90;;;;;;5072619;22;20053;-85
2023/02/08 06:29:23;;;;;;;23.45;15.10;;;-1.20;99.90;;;;;;5004962;28;20049;-85
2023/02/08 06:31:49;;;;;;;23.35;15.57;;;-1.20;99.90;;;;;;5014206;28;20053;-85
2023/02/08 06:34:14;;;;;;;25.55;16.83;;;-1.20;99.90;;;;;;5001618;28;20048;-85
2023/02/08 06:36:40;;;;;;;22.63;16.05;;;-1.20;99.90;;;;;;4996300;28;20049;-85
2023/02/08 06:39:05;;;;;;;24.27;17.15;;;-1.20;99.90;;;;;;5006574;28;20053;-85
2023/02/08 06:41:31;;;;;;;25.52;16.40;;;-1.30;99.90;;;;;;5011047;28;20524;-85
2023/02/08 06:43:58;;;;;;;26.05;18.23;;;-1.20;99.90;;;;;;5003008;28;20049;-85
2023/02/08 06:46:24;;;;;;;22.17;16.33;;;-1.20;99.90;;;;;;5021578;28;20053;-86
2023/02/08 06:48:49;;;;;;;24.92;16.83;;;-1.20;99.90;;;;;;5016475;28;20046;-86
2023/02/08 06:51:15;;;;;;;25.88;17.88;;;-1.20;99.90;;;;;;5013932;28;20041;-85
2023/02/08 06:53:40;;;;;;;25.73;17.67;;;-1.20;99.90;;;;;;5009328;28;20509;-85
2023/02/08 06:56:06;;;;;;;23.85;16.77;;;-1.20;99.90;;;;;;4995531;28;20045;-86
2023/02/08 06:58:32;;;;;;;23.58;16.27;;;-1.20;99.90;;;;;;5002164;28;20045;-85
2023/02/08 07:00:57;;;;;;;25.65;18.27;;;-1.20;99.90;;;;;;5022278;28;20074;-86
2023/02/08 07:03:26;;;;;;;25.42;18.58;;;-1.20;99.90;;;;;;4997291;28;20105;-86
2023/02/08 07:05:51;;;;;;;24.98;17.77;;;-1.20;99.90;;;;;;4996349;28;20499;-85
2023/02/08 07:08:17;;;;;;;25.15;17.80;;;-1.20;99.90;;;;;;5012297;28;20042;-86
2023/02/08 07:10:43;;;;;;;27.15;19.08;;;-1.20;99.90;;;;;;4996197;28;20057;-85
2023/02/08 07:13:09;;;;;;;25.30;18.30;;;-1.20;99.90;;;;;;4996488;28;20042;-86
2023/02/08 07:15:35;;;;;;;26.48;17.67;;;-1.20;99.90;;;;;;5012541;28;20092;-86
2023/02/08 07:18:00;;;;;;;25.92;18.38;;;-1.10;99.90;;;;;;4996203;28;20041;-86
2023/02/08 07:20:26;;;;;;;25.00;17.98;;;-1.10;99.90;;;;;;4995514;28;20104;-86
2023/02/08 07:22:52;;;;;;;24.67;18.20;;;-1.10;99.90;;;;;;5012355;28;20120;-86
2023/02/08 07:25:17;;;;;;;25.23;16.65;;;-1.10;99.90;;;;;;4994785;28;20052;-85
2023/02/08 07:27:43;;;;;;;24.60;17.30;;;-1.10;99.90;;;;;;4995465;28;20050;-86
2023/02/08 07:30:09;;;;;;;26.08;18.38;;;-1.10;99.90;;;;;;4994859;28;20104;-86
2023/02/08 07:32:35;;;;;;;26.85;18.58;;;-1.10;99.90;;;;;;4995763;28;20042;-85
2023/02/08 07:35:00;;;;;;;26.95;19.08;;;-1.10;99.90;;;;;;5013234;28;20100;-85
2023/02/08 07:37:32;;;;;;;23.33;16.88;;;-1.10;99.90;;;;;;5012688;28;20552;-86
2023/02/08 07:40:01;;;;;;;26.35;18.13;;;-1.10;99.90;;;;;;5004536;28;20050;-86
2023/02/08 07:42:27;;;;;;;27.02;18.00;;;-1.00;99.90;;;;;;4996125;28;20038;-86
2023/02/08 07:44:55;;;;;;;25.65;18.77;;;-1.10;99.90;;;;;;5012424;28;20057;-87
2023/02/08 07:47:21;;;;;;;25.77;18.17;;;-1.10;99.90;;;;;;4995387;28;20493;-86
2023/02/08 07:49:46;;;;;;;26.90;18.50;;;-1.00;99.90;;;;;;4996501;28;20065;-86
2023/02/08 07:52:12;;;;;;;25.45;18.02;;;-1.00;99.90;;;;;;5028749;28;20081;-87
2023/02/08 07:54:40;;;;;;;27.35;18.30;;;-1.00;99.90;;;;;;5032632;28;20116;-87
2023/02/08 07:57:09;;;;;;;25.52;17.95;;;-1.00;99.90;;;;;;5016649;28;20057;-86
2023/02/08 07:59:34;;;;;;;25.67;17.70;;;-1.00;99.90;;;;;;5017710;28;20037;-87
2023/02/08 08:02:00;;;;;;;23.33;16.35;;;-1.00;99.90;;;;;;5019175;28;20045;-87
2023/02/08 08:04:25;;;;;;;23.98;16.98;;;-1.00;99.90;;;;;;5035528;28;20128;-86
2023/02/08 08:06:52;;;;;;;24.77;17.20;;;-1.00;99.90;;;;;;5014418;28;20038;-87
2023/02/08 08:09:19;;;;;;;21.50;15.98;;;-1.00;99.90;;;;;;4998926;28;20050;-87
2023/02/08 08:11:45;;;;;;;24.15;16.73;;;-1.00;99.90;;;;;;4998109;28;20046;-87
2023/02/08 08:14:11;;;;;;;26.73;18.33;;;-1.00;99.90;;;;;;5006315;28;20409;-86
2023/02/08 08:16:36;;;;;;;24.60;17.83;;;-1.00;99.90;;;;;;5030703;28;20053;-87
2023/02/08 08:19:02;;;;;;;24.05;16.98;;;-1.00;99.90;;;;;;5017683;28;20037;-88
2023/02/08 08:21:30;;;;;;;24.00;18.00;;;-1.00;99.90;;;;;;5035988;28;20060;-87
2023/02/08 08:23:56;;;;;;;25.45;17.48;;;-1.00;99.90;;;;;;5035529;28;20045;-88
2023/02/08 08:26:22;;;;;;;24.25;16.83;;;-1.00;99.90;;;;;;5017315;28;20045;-87
2023/02/08 08:28:47;;;;;;;24.98;17.05;;;-1.00;99.90;;;;;;5030758;28;20133;-87
2023/02/08 08:31:16;;;;;;;25.00;16.90;;;-1.00;99.90;;;;;;4998334;28;20054;-87
2023/02/08 08:33:42;;;;;;;25.98;17.63;;;-1.00;99.90;;;;;;5015066;28;20517;-87
2023/02/08 08:36:08;;;;;;;23.63;17.50;;;-1.00;99.90;;;;;;4997889;28;20084;-86
2023/02/08 08:38:34;;;;;;;23.98;16.92;;;-1.00;99.90;;;;;;5024190;22;20041;-87
2023/02/08 08:41:05;;;;;;;26.45;17.20;;;-1.00;99.90;;;;;;5035173;28;20076;-87
2023/02/08 08:43:36;;;;;;;25.17;16.55;;;-0.90;99.90;;;;;;5035238;28;20163;-87
2023/02/08 08:46:16;;;;;;;;;;;;;;;;;;;;;
2023/02/08 08:48:51;;;;;;;24.50;17.23;;;-0.80;99.90;;;;;;5032972;28;20382;-88
2023/02/08 08:51:17;;;;;;;25.60;17.27;;;-0.90;99.90;;;;;;4997921;28;20077;-87
2023/02/08 08:53:45;;;;;;;25.20;17.30;;;-0.80;99.90;;;;;;5015161;28;20131;-87
2023/02/08 08:56:13;;;;;;;23.70;17.00;;;-0.80;99.90;;;;;;5001034;28;20045;-87
2023/02/08 08:58:39;;;;;;;25.85;17.98;;;-0.80;99.90;;;;;;5028785;28;20041;-90
2023/02/08 09:01:05;;;;;;;27.02;18.77;;;-0.70;99.90;;;;;;5053609;28;20060;-88
2023/02/08 09:03:30;;;;;;;25.15;18.38;;;-0.70;99.90;;;;;;5023878;28;20508;-88
2023/02/08 09:05:56;;;;;;;24.90;17.90;;;-0.70;99.90;;;;;;5017643;28;20063;-88
2023/02/08 09:08:21;;;;;;;29.27;18.17;;;-0.60;99.90;;;;;;5016155;28;20045;-88
2023/02/08 09:10:47;;;;;;;24.90;17.00;;;-0.60;99.90;;;;;;5018498;28;20141;-88
2023/02/08 09:13:18;;;;;;;23.10;17.13;;;-0.60;99.90;;;;;;5034817;28;20052;-87
2023/02/08 09:15:44;;;;;;;24.90;17.25;;;-0.50;99.90;;;;;;5016921;28;20508;-89
2023/02/08 09:18:09;;;;;;;26.00;18.02;;;-0.40;99.90;;;;;;5017240;28;20047;-88
2023/02/08 09:20:38;;;;;;;24.65;17.42;;;-0.40;99.90;;;;;;5034810;28;20389;-88
2023/02/08 09:23:04;;;;;;;24.20;17.15;;;-0.40;99.90;;;;;;5034313;28;20042;-88
2023/02/08 09:25:29;;;;;;;25.30;17.30;;;-0.30;99.90;;;;;;5016511;28;20128;-88
2023/02/08 09:27:59;;;;;;;26.85;18.88;;;-0.30;99.90;;;;;;5050612;28;20041;-89
2023/02/08 09:30:27;;;;;;;26.15;17.58;;;-0.20;99.90;;;;;;5016230;28;20079;-89
2023/02/08 09:32:53;;;;;;;25.90;17.35;;;-0.20;99.90;;;;;;5017224;28;20049;-89
2023/02/08 09:35:21;;;;;;;28.23;18.67;;;-0.20;99.90;;;;;;5016896;28;20114;-89
2023/02/08 09:37:47;;;;;;;29.08;18.15;;;-0.10;99.90;;;;;;5016803;28;20052;-89
2023/02/08 09:40:24;;;;;;;26.42;17.67;;;-0.10;99.90;;;;;;5028158;28;20053;-90
2023/02/08 09:43:08;;;;;;;24.10;17.02;;;0.00;99.90;;;;;;5032964;28;20080;-90
2023/02/08 09:45:53;;;;;;;29.30;19.02;;;0.00;99.90;;;;;;5034947;28;20055;-90
2023/02/08 09:48:25;;;;;;;26.27;18.17;;;0.10;99.90;;;;;;5033521;28;20046;-90
2023/02/08 09:51:06;;;;;;;26.17;18.23;;;0.10;99.90;;;;;;5033783;28;20053;-91
2023/02/08 09:53:34;;;;;;;23.77;16.10;;;0.20;99.90;;;;;;5033063;28;20215;-91
2023/02/08 09:56:04;;;;;;;24.35;17.33;;;0.30;99.90;;;;;;5034862;28;20059;-91
2023/02/08 09:58:42;;;;;;;25.17;17.02;;;0.40;99.90;;;;;;5032263;28;20045;-91
2023/02/08 10:01:17;;;;;;;26.65;17.58;;;0.50;99.90;;;;;;5034641;28;20108;-92
2023/02/08 10:03:44;;;;;;;25.38;17.02;;;0.50;99.90;;;;;;5067141;28;20045;-91
2023/02/08 10:06:18;;;;;;;24.45;15.70;;;0.60;99.90;;;;;;5033610;28;20045;-91
2023/02/08 10:08:47;;;;;;;23.45;15.93;;;0.70;99.90;;;;;;5034874;28;20033;-90
2023/02/08 10:11:34;;;;;;;21.17;14.93;;;0.80;99.90;;;;;;5033177;28;20144;-92
2023/02/08 10:14:19;;;;;;;24.50;17.20;;;0.80;99.90;;;;;;5035536;28;20077;-91
2023/02/08 10:16:47;;;;;;;22.70;14.73;;;0.90;99.90;;;;;;5035269;28;20037;-92
2023/02/08 10:19:41;;;;;;;23.45;14.80;;;1.00;99.90;;;;;;5053054;28;20048;-90
2023/02/08 10:22:24;;;;;;;18.98;13.77;;;1.10;99.90;;;;;;5055640;28;20127;-93
2023/02/08 10:25:27;;;;;;;20.23;14.18;;;1.10;99.90;;;;;;5055751;28;20067;-93
2023/02/08 10:28:21;;;;;;;19.75;13.48;;;1.30;99.90;;;;;;5032990;28;20045;-94
2023/02/08 10:31:02;;;;;;;21.75;13.30;;;1.30;99.90;;;;;;5027163;28;20042;-93
2023/02/08 10:33:33;;;;;;;17.77;12.02;;;1.50;99.90;;;;;;5033372;28;20053;-92
2023/02/08 10:35:59;;;;;;;19.95;14.45;;;1.50;99.90;;;;;;5042347;28;20416;-92
2023/02/08 10:38:31;;;;;;;19.52;13.05;;;1.60;99.90;;;;;;5053703;28;20131;-92
2023/02/08 10:41:06;;;;;;;20.08;12.48;;;1.70;99.90;;;;;;5036713;28;20408;-93
2023/02/08 10:43:41;;;;;;;18.98;12.05;;;1.80;99.90;;;;;;4992624;28;20054;-93
2023/02/08 10:46:31;;;;;;;19.75;14.63;;;1.90;99.90;;;;;;4978606;28;20042;-94
2023/02/08 10:49:00;;;;;;;16.23;11.48;;;2.00;99.90;;;;;;4978780;28;20145;-93
2023/02/08 10:51:36;;;;;;;19.17;11.80;;;2.10;99.90;;;;;;4982717;28;20053;-93
2023/02/08 10:54:14;;;;;;;20.55;13.30;;;2.10;99.90;;;;;;5006804;28;20034;-93
2023/02/08 10:57:04;;;;;;;19.73;12.52;;;2.20;99.90;;;;;;4976283;28;20050;-92
2023/02/08 11:00:18;;;;;;;19.23;12.48;;;2.30;99.90;;;;;;4994464;28;20034;-92
2023/02/08 11:03:00;;;;;;;19.25;12.57;;;2.40;99.90;;;;;;4971177;28;20042;-92
2023/02/08 11:05:35;;;;;;;20.63;14.18;;;2.40;99.90;;;;;;4974692;28;20066;-92
2023/02/08 11:08:27;;;;;;;18.85;12.10;;;2.50;99.90;;;;;;4982672;28;20046;-92
2023/02/08 11:11:06;;;;;;;16.13;11.38;;;2.60;99.90;;;;;;4987104;28;20046;-93
2023/02/08 11:13:40;;;;;;;14.05;10.15;;;2.60;99.90;;;;;;4977213;28;20046;-91
2023/02/08 11:16:09;;;;;;;15.63;10.55;;;2.80;99.90;;;;;;4978082;28;20521;-90
2023/02/08 11:19:00;;;;;;;15.32;10.32;;;2.80;99.90;;;;;;4987783;28;20034;-90
2023/02/08 11:21:37;;;;;;;17.05;10.73;;;2.90;99.90;;;;;;4963793;28;20050;-90
2023/02/08 11:24:38;;;;;;;15.55;10.05;;;3.00;99.90;;;;;;4977346;28;20133;-90
2023/02/08 11:27:26;;;;;;;12.25;8.50;;;3.10;99.90;;;;;;4977907;28;20038;-90
2023/02/08 11:30:14;;;;;;;14.07;9.18;;;3.20;99.90;;;;;;4976279;28;20402;-90
2023/02/08 11:32:48;;;;;;;16.45;10.77;;;3.20;99.90;;;;;;4981907;28;20034;-91
2023/02/08 11:35:19;;;;;;;14.40;9.23;;;3.30;99.90;;;;;;4997620;28;20140;-91
2023/02/08 11:37:53;;;;;;;13.65;9.18;;;3.40;99.90;;;;;;4984600;28;20080;-92
2023/02/08 11:40:36;;;;;;;12.63;8.20;;;3.50;99.70;;;;;;4984310;28;20065;-92
2023/02/08 11:43:03;;;;;;;13.07;8.63;;;3.50;99.30;;;;;;4978238;28;20058;-91
2023/02/08 11:45:36;;;;;;;12.65;8.90;;;3.60;99.00;;;;;;4979127;28;20071;-91
2023/02/08 11:48:03;;;;;;;13.18;9.30;;;3.70;98.70;;;;;;4979454;28;20050;-91
2023/02/08 11:50:32;;;;;;;14.65;9.43;;;3.70;98.80;;;;;;4973948;28;20043;-90
2023/02/08 11:53:06;;;;;;;12.85;8.85;;;3.80;98.90;;;;;;4972242;28;20051;-91
2023/02/08 11:55:33;;;;;;;13.65;9.90;;;3.90;98.90;;;;;;4982564;28;20139;-91
2023/02/08 11:58:01;;;;;;;13.82;8.00;;;3.90;99.20;;;;;;4976759;28;20054;-91
2023/02/08 12:00:36;;;;;;;11.40;7.00;;;4.00;99.20;;;;;;4977462;28;20489;-91
2023/02/08 12:03:26;;;;;;;13.13;8.98;;;4.00;98.40;;;;;;4980738;28;20046;-92
2023/02/08 12:06:25;;;;;;;13.25;7.82;;;4.10;97.70;;;;;;4977812;28;20035;-90
2023/02/08 12:08:57;;;;;;;14.00;7.53;;;4.10;97.40;;;;;;4978077;28;20042;-91
2023/02/08 12:11:44;;;;;;;11.95;7.95;;;4.20;97.30;;;;;;4976695;28;20054;-91
2023/02/08 12:14:26;;;;;;;12.60;7.63;;;4.20;97.00;;;;;;4984741;28;20050;-89
2023/02/08 12:17:28;;;;;;;11.82;7.30;;;4.30;96.60;;;;;;4987162;28;20084;-91
2023/02/08 12:20:31;;;;;;;13.20;8.90;;;4.40;96.00;;;;;;4928240;28;20059;-90
2023/02/08 12:23:27;;;;;;;14.48;9.75;;;4.40;96.20;;;;;;4977453;28;20090;-91
2023/02/08 12:26:03;;;;;;;14.48;8.90;;;4.50;96.40;;;;;;4986469;28;20049;-91
2023/02/08 12:28:54;;;;;;;12.60;8.45;;;4.50;96.30;;;;;;4978559;28;20090;-92
2023/02/08 12:31:55;;;;;;;12.00;7.93;;;4.60;96.00;;;;;;4977024;28;20043;-92
2023/02/08 12:34:52;;;;;;;12.93;7.90;;;4.60;95.10;;;;;;4981760;28;20165;-91
2023/02/08 12:40:49;;;;;;;12.13;8.18;;;4.70;94.50;;;;;;4987219;28;20046;-91
2023/02/08 12:43:33;;;;;;;12.95;7.75;;;4.80;94.40;;;;;;4973501;28;20554;-91
2023/02/08 12:46:10;;;;;;;11.82;6.65;;;4.80;94.50;;;;;;4993441;28;20050;-91
2023/02/08 12:48:45;;;;;;;11.95;6.70;;;4.80;93.90;;;;;;4996670;28;20050;-93
2023/02/08 12:51:49;;;;;;;10.98;6.60;;;4.90;93.70;;;;;;4996321;28;20050;-90
2023/02/08 12:54:43;;;;;;;10.93;7.25;;;4.90;92.80;;;;;;4957057;28;20044;-91
2023/02/08 12:57:16;;;;;;;12.07;6.93;;;5.00;93.20;;;;;;4996831;28;20050;-92
2023/02/08 12:59:44;;;;;;;8.98;6.20;;;5.00;93.50;;;;;;4983306;28;20042;-91
2023/02/08 13:02:30;;;;;;;10.60;7.47;;;5.00;93.30;;;;;;4976497;28;20478;-91
2023/02/08 13:05:10;;;;;;;11.70;6.28;;;5.10;93.30;;;;;;4976944;28;20046;-91
2023/02/08 13:07:40;;;;;;;10.43;6.47;;;5.10;93.00;;;;;;4972330;28;20046;-90
2023/02/08 13:10:11;;;;;;;10.38;6.85;;;5.20;92.80;;;;;;4975406;28;20394;-91